Earl's Court, United Kingdom
Current Conditions -  °F | °C
As of 1:20 PM on Friday 28 Nov 2014 (Local Time) from EGLC Reporting Station
Broken Clouds Broken Clouds  
Wind Chill: 54°   Ceiling: 1200
Heat Index: 54°   Visibility: 6mi
Dew Point: 48°   Wind: 16mph
Humidity: 82%   Direction: 80°E
Pressure: 29.59"   Gusts: NA
Location:  51.49°N, 0.19°W
Report Text: EGLC 281320Z 08014KT 9999 BKN012 12/09 Q1002
Loading
Personal Weather Stations






























Interactive Weather Map New forecast layout! Learn more

10-Day Weather Forecast

Advertisements
Track Severe Weather on mobile